^^
Meteo Knjazevac Station Historical Data
Daily Summary for July 7, 2021 Units:  English    Metric   Both
Daily Weekly Monthly Yearly Custom
  High: Low: Average:
Temperature: 69.6 °F 58.5 °F 62.2 °F
Dew Point: 64.9 °F 56.7 °F 59.4 °F
Humidity: 96% 83% 91%
Wind Speed: 2mph 0mph 0.9mph
Wind Gust: 5mph - -
Wind- - WNW
Pressure: 30.08 in 30.04 in -
Precipitation: 0.00 in    
Historical Graphs
 
 
Tabular Data for July 7, 2021
Time Temperature Dew Point Pressure Wind Wind Speed Wind Gust Humidity Rainfall Rate (Hourly) solar Conditions
00:00 66.9 °F 61.6 °F 30.04 in West 1 mph 2 mph 83% 0.00 in 0 W/m2
00:10 66.4 °F 61.4 °F 30.04 in Calm   2 mph 84% 0.00 in 0 W/m2
00:20 65.9 °F 60.9 °F 30.04 in NW 1 mph 1 mph 84% 0.00 in 0 W/m2
00:30 65.3 °F 60.7 °F 30.04 in West 1 mph 3 mph 85% 0.00 in 0 W/m2
00:40 65.1 °F 60.5 °F 30.04 in NW 1 mph 3 mph 85% 0.00 in 0 W/m2
00:50 65.1 °F 60.5 °F 30.04 in Calm   2 mph 85% 0.00 in 0 W/m2
01:00 64.8 °F 60.5 °F 30.04 in West 1 mph 2 mph 86% 0.00 in 0 W/m2
01:10 64.4 °F 60.1 °F 30.04 in WNW 1 mph 2 mph 86% 0.00 in 0 W/m2
01:20 64.2 °F 59.9 °F 30.04 in Calm   2 mph 86% 0.00 in 0 W/m2
01:30 63.6 °F 59.9 °F 30.04 in Calm   2 mph 88% 0.00 in 0 W/m2
01:40 63.1 °F 59.5 °F 30.04 in Calm   2 mph 88% 0.00 in 0 W/m2
01:50 62.8 °F 59.5 °F 30.04 in WSW 1 mph 3 mph 89% 0.00 in 0 W/m2
02:00 62.6 °F 59.3 °F 30.04 in WNW 2 mph 5 mph 89% 0.00 in 0 W/m2
02:10 62.6 °F 59.3 °F 30.04 in West 2 mph 4 mph 89% 0.00 in 0 W/m2
02:20 62.3 °F 59 °F 30.04 in West 1 mph 3 mph 89% 0.00 in 0 W/m2
02:30 62.1 °F 59.1 °F 30.04 in Calm   2 mph 90% 0.00 in 0 W/m2
02:40 61.7 °F 58.7 °F 30.04 in WSW 1 mph 3 mph 90% 0.00 in 0 W/m2
02:50 61.3 °F 58.4 °F 30.04 in West 1 mph 2 mph 90% 0.00 in 0 W/m2
03:00 61 °F 58 °F 30.04 in Calm   2 mph 90% 0.00 in 0 W/m2
03:10 60.7 °F 58 °F 30.05 in WNW 1 mph 2 mph 91% 0.00 in 0 W/m2
03:20 60.6 °F 58.6 °F 30.05 in NW 1 mph 3 mph 93% 0.00 in 0 W/m2
03:30 60.6 °F 58 °F 30.05 in Calm   3 mph 91% 0.00 in 0 W/m2
03:40 60.4 °F 57.8 °F 30.05 in Calm   2 mph 91% 0.00 in 0 W/m2
03:50 60.1 °F 57.4 °F 30.05 in WNW 2 mph 3 mph 91% 0.00 in 0 W/m2
04:00 59.9 °F 57.9 °F 30.05 in West 2 mph 5 mph 93% 0.00 in 0 W/m2
04:10 59.7 °F 57.7 °F 30.05 in WSW 2 mph 4 mph 93% 0.00 in 0 W/m2
04:20 59.4 °F 57.4 °F 30.05 in WNW 1 mph 2 mph 93% 0.00 in 0 W/m2
04:30 59.4 °F 57.3 °F 30.06 in West 1 mph 3 mph 93% 0.00 in 0 W/m2
04:40 59.2 °F 57.2 °F 30.06 in Calm   2 mph 93% 0.00 in 0 W/m2
04:50 58.8 °F 57.1 °F 30.06 in WNW 1 mph 3 mph 94% 0.00 in 0 W/m2
05:00 58.8 °F 57.1 °F 30.06 in WNW 1 mph 2 mph 94% 0.00 in 4 W/m2
05:10 58.6 °F 56.9 °F 30.06 in WNW 1 mph 2 mph 94% 0.00 in 10 W/m2
05:20 58.5 °F 56.7 °F 30.06 in West 1 mph 3 mph 94% 0.00 in 18 W/m2
05:30 58.5 °F 56.7 °F 30.06 in WNW 1 mph 3 mph 94% 0.00 in 26 W/m2
05:40 58.5 °F 57 °F 30.06 in WNW 1 mph 4 mph 95% 0.00 in 34 W/m2
05:50 58.6 °F 57.2 °F 30.07 in WNW 2 mph 5 mph 95% 0.00 in 45 W/m2
06:00 59 °F 57.9 °F 30.07 in WNW 2 mph 4 mph 96% 0.00 in 52 W/m2
06:10 59.2 °F 57.7 °F 30.07 in West 1 mph 3 mph 95% 0.00 in 92 W/m2
06:20 59.2 °F 57.7 °F 30.07 in WNW 1 mph 2 mph 95% 0.00 in 130 W/m2
06:30 59.4 °F 57.9 °F 30.07 in WNW 1 mph 2 mph 95% 0.00 in 156 W/m2
06:40 59.7 °F 58.6 °F 30.08 in West 1 mph 4 mph 96% 0.00 in 184 W/m2
06:50 60.3 °F 59.1 °F 30.08 in WNW 1 mph 3 mph 96% 0.00 in 213 W/m2
07:00 60.8 °F 59.7 °F 30.08 in West 1 mph 3 mph 96% 0.00 in 245 W/m2
07:10 61.7 °F 60.5 °F 30.08 in NW 1 mph 3 mph 96% 0.00 in 281 W/m2
07:20 62.4 °F 61 °F 30.08 in NW 1 mph 4 mph 95% 0.00 in 316 W/m2
07:30 63.5 °F 62 °F 30.08 in West 2 mph 4 mph 95% 0.00 in 347 W/m2
07:40 64.4 °F 62.6 °F 30.08 in West 1 mph 3 mph 94% 0.00 in 388 W/m2
07:50 65.1 °F 62.4 °F 30.08 in WNW 2 mph 4 mph 91% 0.00 in 429 W/m2
08:00 66 °F 63 °F 30.08 in West 1 mph 3 mph 90% 0.00 in 468 W/m2
08:10 66.9 °F 63.5 °F 30.08 in West 1 mph 3 mph 89% 0.00 in 503 W/m2
08:20 67.6 °F 64 °F 30.08 in Calm   5 mph 88% 0.00 in 537 W/m2
08:30 68.5 °F 64.2 °F 30.08 in Calm   4 mph 86% 0.00 in 572 W/m2
08:40 69.6 °F 64.9 °F 30.08 in West 1 mph 4 mph 85% 0.00 in 602 W/m2
Knjazevac, Serbia
Compliments of Weather Underground - 2 mb